createdAt,value
2018-05-13T00:00:14.084Z,28.97
2018-05-13T00:04:17.495Z,28.03
2018-05-13T00:08:20.904Z,23.97
2018-05-13T00:12:23.543Z,27.00
2018-05-13T00:16:26.187Z,26.07
2018-05-13T00:20:28.799Z,26.57
2018-05-13T00:24:31.441Z,27.80
2018-05-13T00:28:34.847Z,25.70
2018-05-13T00:32:38.270Z,28.43
2018-05-13T00:36:40.965Z,27.40
2018-05-13T00:40:43.639Z,28.37
2018-05-13T00:44:47.045Z,25.00
2018-05-13T00:48:50.496Z,26.83
2018-05-13T00:52:53.184Z,25.80
2018-05-13T00:56:55.788Z,24.80
2018-05-13T01:00:58.434Z,29.53
2018-05-13T01:05:01.074Z,26.43
2018-05-13T01:09:03.724Z,25.33
2018-05-13T01:13:06.364Z,30.80
2018-05-13T01:17:09.024Z,27.73
2018-05-13T01:21:11.735Z,29.03
2018-05-13T01:25:14.385Z,27.83
2018-05-13T01:29:17.796Z,30.00
2018-05-13T01:33:20.456Z,27.57
2018-05-13T01:37:23.056Z,27.90
2018-05-13T01:41:25.699Z,30.17
2018-05-13T01:45:28.408Z,27.93
2018-05-13T01:49:31.817Z,29.00
2018-05-13T01:53:35.188Z,27.33
2018-05-13T01:57:37.832Z,26.77
2018-05-13T02:01:40.468Z,25.13
2018-05-13T02:05:43.109Z,28.13
2018-05-13T02:09:45.760Z,27.17
2018-05-13T02:13:49.132Z,28.83
2018-05-13T02:17:51.776Z,26.20
2018-05-13T02:21:54.487Z,27.67
2018-05-13T02:25:57.131Z,26.07
2018-05-13T02:29:59.776Z,27.17
2018-05-13T02:34:02.384Z,28.03
2018-05-13T02:38:05.093Z,24.57
2018-05-13T02:42:07.743Z,23.90
2018-05-13T02:46:10.384Z,25.20
2018-05-13T02:50:13.812Z,24.70
2018-05-13T02:54:16.417Z,26.00
2018-05-13T02:58:19.075Z,21.27
2018-05-13T03:02:22.468Z,23.30
2018-05-13T03:06:25.891Z,21.63
2018-05-13T03:10:28.556Z,23.10
2018-05-13T03:14:31.165Z,23.47
2018-05-13T03:18:34.571Z,22.73
2018-05-13T03:22:37.212Z,26.17
2018-05-13T03:26:39.923Z,25.60
2018-05-13T03:30:42.534Z,27.27
2018-05-13T03:34:45.183Z,28.57
2018-05-13T03:38:47.833Z,23.57
2018-05-13T03:42:50.541Z,28.03
2018-05-13T03:46:53.190Z,25.40
2018-05-13T03:50:56.554Z,25.73
2018-05-13T03:54:59.200Z,26.40
2018-05-13T03:59:01.850Z,27.93
2018-05-13T04:03:05.260Z,28.83
2018-05-13T04:07:08.750Z,28.57
2018-05-13T04:11:23.296Z,27.43
2018-05-13T04:15:26.735Z,29.00
2018-05-13T04:19:29.375Z,29.23
2018-05-13T04:23:32.018Z,29.83
2018-05-13T04:27:35.424Z,26.33
2018-05-13T04:31:38.069Z,28.63
2018-05-13T04:35:40.761Z,29.03
2018-05-13T04:39:43.419Z,28.00
2018-05-13T04:43:46.111Z,28.20
2018-05-13T04:47:48.730Z,28.17
2018-05-13T04:51:51.376Z,30.40
2018-05-13T04:55:54.779Z,29.40
2018-05-13T04:59:58.192Z,28.10
2018-05-13T05:04:00.899Z,33.27
2018-05-13T05:08:03.514Z,30.50
2018-05-13T05:12:06.172Z,27.97
2018-05-13T05:16:08.811Z,31.17
2018-05-13T05:20:11.452Z,29.93
2018-05-13T05:24:14.059Z,29.10
2018-05-13T05:28:16.707Z,32.07
2018-05-13T05:32:19.389Z,30.53
2018-05-13T05:36:22.804Z,28.80
2018-05-13T05:40:25.517Z,28.97
2018-05-13T05:44:28.167Z,32.40
2018-05-13T05:48:31.576Z,30.73
2018-05-13T05:52:35.250Z,31.43
2018-05-13T05:56:37.949Z,29.57
2018-05-13T06:00:40.596Z,30.13
2018-05-13T06:04:43.203Z,29.07
2018-05-13T06:08:45.847Z,30.53
2018-05-13T06:12:49.312Z,34.90
2018-05-13T06:16:52.016Z,28.37
2018-05-13T06:20:54.664Z,30.23
2018-05-13T06:24:57.382Z,30.17
2018-05-13T06:29:00.076Z,27.60
2018-05-13T06:33:02.724Z,26.87
2018-05-13T06:37:05.403Z,26.47
2018-05-13T06:41:08.017Z,26.47
2018-05-13T06:45:10.736Z,25.73
2018-05-13T06:49:13.388Z,25.93
2018-05-13T06:53:16.031Z,23.60
2018-05-13T06:57:19.526Z,25.40
2018-05-13T07:01:22.079Z,23.90
2018-05-13T07:05:25.234Z,28.27
2018-05-13T07:09:28.648Z,24.67
2018-05-13T07:13:32.061Z,25.13
2018-05-13T07:17:34.709Z,25.67
2018-05-13T07:21:37.320Z,28.23
2018-05-13T07:25:40.745Z,27.93
2018-05-13T07:29:43.414Z,25.80
2018-05-13T07:33:46.832Z,26.03
2018-05-13T07:37:50.475Z,26.10
2018-05-13T07:41:53.097Z,27.13
2018-05-13T07:45:55.740Z,29.07
2018-05-13T07:49:58.387Z,24.47
2018-05-13T07:54:01.045Z,25.53
2018-05-13T07:58:03.657Z,25.10
2018-05-13T08:02:06.303Z,24.60
2018-05-13T08:06:09.019Z,24.03
2018-05-13T08:10:11.640Z,23.10
2018-05-13T08:14:15.061Z,23.73
2018-05-13T08:18:17.672Z,23.87
2018-05-13T08:22:20.347Z,23.23
2018-05-13T08:26:22.983Z,23.53
2018-05-13T08:30:25.625Z,24.80
2018-05-13T08:34:28.277Z,24.00
2018-05-13T08:38:30.899Z,24.17
2018-05-13T08:42:33.545Z,28.17
2018-05-13T08:46:36.278Z,22.93
2018-05-13T08:50:38.916Z,23.77
2018-05-13T08:54:41.655Z,20.40
2018-05-13T08:58:44.270Z,22.90
2018-05-13T09:02:46.909Z,22.33
2018-05-13T09:06:50.432Z,20.83
2018-05-13T09:10:53.142Z,22.97
2018-05-13T09:14:55.788Z,23.57
2018-05-13T09:18:58.398Z,23.00
2018-05-13T09:23:01.037Z,22.10
2018-05-13T09:27:03.679Z,26.70
2018-05-13T09:31:06.313Z,21.33
2018-05-13T09:35:08.921Z,21.93
2018-05-13T09:39:11.569Z,22.73
2018-05-13T09:43:14.212Z,21.93
2018-05-13T09:47:17.623Z,20.00
2018-05-13T09:51:21.073Z,19.60
2018-05-13T09:55:23.667Z,22.83
2018-05-13T09:59:26.333Z,23.03
2018-05-13T10:03:28.974Z,18.87
2018-05-13T10:07:31.618Z,17.53
2018-05-13T10:11:34.223Z,16.70
2018-05-13T10:15:36.864Z,17.57
2018-05-13T10:19:40.273Z,89.83
2018-05-13T10:23:42.968Z,18.47
2018-05-13T10:27:45.624Z,17.80
2018-05-13T10:31:48.231Z,19.97
2018-05-13T10:35:51.641Z,15.70
2018-05-13T10:39:54.395Z,17.13
2018-05-13T10:43:57.044Z,15.40
2018-05-13T10:47:59.688Z,15.83
2018-05-13T10:52:02.295Z,15.83
2018-05-13T10:56:05.695Z,18.97
2018-05-13T11:00:09.104Z,15.83
2018-05-13T11:04:11.793Z,17.70
2018-05-13T11:08:15.317Z,19.03
2018-05-13T11:12:17.920Z,19.13
2018-05-13T11:16:20.560Z,17.83
2018-05-13T11:20:23.211Z,13.70
2018-05-13T11:24:25.848Z,13.80
2018-05-13T11:28:29.229Z,14.37
2018-05-13T11:32:31.876Z,12.73
2018-05-13T11:36:34.573Z,12.17
2018-05-13T11:40:37.565Z,17.83
2018-05-13T11:44:40.961Z,16.20
2018-05-13T11:48:43.868Z,12.40
2018-05-13T11:52:46.802Z,13.30
2018-05-13T11:56:49.456Z,11.67
2018-05-13T12:00:52.109Z,15.80
2018-05-13T12:04:55.584Z,14.97
2018-05-13T12:08:58.196Z,12.87
2018-05-13T12:13:01.600Z,10.83
2018-05-13T12:17:05.004Z,11.37
2018-05-13T12:21:08.573Z,11.67
2018-05-13T12:29:04.675Z,12.40
2018-05-13T12:33:08.085Z,12.83
2018-05-13T12:37:11.502Z,16.43
2018-05-13T12:41:14.904Z,14.50
2018-05-13T12:45:18.283Z,13.63
2018-05-13T12:49:20.924Z,13.23
2018-05-13T12:53:23.563Z,13.70
2018-05-13T12:57:26.240Z,13.50
2018-05-13T13:01:28.884Z,10.80
2018-05-13T13:05:31.488Z,12.77
2018-05-13T13:09:34.224Z,10.67
2018-05-13T13:13:37.564Z,9.97
2018-05-13T13:17:40.206Z,8.20
2018-05-13T13:21:42.843Z,10.67
2018-05-13T13:25:45.448Z,9.07
2018-05-13T13:29:48.142Z,15.17
2018-05-13T13:33:50.775Z,9.40
2018-05-13T13:37:54.185Z,10.63
2018-05-13T13:41:57.655Z,9.73
2018-05-13T13:46:00.259Z,11.23
2018-05-13T13:50:02.899Z,9.37
2018-05-13T13:54:05.535Z,8.57
2018-05-13T13:58:08.213Z,8.70
2018-05-13T14:02:10.824Z,7.07
2018-05-13T14:06:13.479Z,8.80
2018-05-13T14:10:16.130Z,8.30
2018-05-13T14:14:18.837Z,8.70
2018-05-13T14:18:21.541Z,10.73
2018-05-13T14:22:24.151Z,7.53
2018-05-13T14:26:26.846Z,10.87
2018-05-13T14:30:29.488Z,8.40
2018-05-13T14:34:32.184Z,9.37
2018-05-13T14:38:34.883Z,11.67
2018-05-13T14:42:37.552Z,8.27
2018-05-13T14:46:40.197Z,10.93
2018-05-13T14:50:42.849Z,6.57
2018-05-13T14:54:45.527Z,10.77
2018-05-13T14:58:48.191Z,9.23
2018-05-13T15:02:50.824Z,8.13
2018-05-13T15:10:48.080Z,8.33
2018-05-13T15:14:50.710Z,6.43
2018-05-13T15:18:53.353Z,9.93
2018-05-13T15:22:56.041Z,6.13
2018-05-13T15:30:54.284Z,8.40
2018-05-13T15:34:56.925Z,6.80
2018-05-13T15:38:59.526Z,6.70
2018-05-13T15:43:03.010Z,8.93
2018-05-13T15:47:05.591Z,9.80
2018-05-13T15:51:08.228Z,8.07
2018-05-13T15:55:10.955Z,9.40
2018-05-13T15:59:13.573Z,5.90
2018-05-13T16:03:16.203Z,6.00
2018-05-13T16:07:18.852Z,8.27
2018-05-13T16:11:21.496Z,10.70
2018-05-13T16:15:24.088Z,8.57
2018-05-13T16:19:26.732Z,6.13
2018-05-13T16:23:30.141Z,6.40
2018-05-13T16:27:33.544Z,6.90
2018-05-13T16:31:37.891Z,7.13
2018-05-13T16:35:40.490Z,7.03
2018-05-13T16:39:43.127Z,6.73
2018-05-13T16:43:46.329Z,7.57
2018-05-13T16:47:49.659Z,9.63
2018-05-13T16:51:53.064Z,12.97
2018-05-13T16:55:56.428Z,13.93
2018-05-13T16:59:59.067Z,10.57
2018-05-13T17:04:01.707Z,11.67
2018-05-13T17:08:04.358Z,9.53
2018-05-13T17:12:06.995Z,14.73
2018-05-13T17:16:09.600Z,8.27
2018-05-13T17:20:13.013Z,6.73
2018-05-13T17:24:16.416Z,6.60
2018-05-13T17:28:19.821Z,6.23
2018-05-13T17:32:23.987Z,6.53
2018-05-13T17:36:26.633Z,5.97
2018-05-13T17:40:30.032Z,6.73
2018-05-13T17:44:32.673Z,5.77
2018-05-13T17:48:35.399Z,6.57
2018-05-13T17:52:38.008Z,10.60
2018-05-13T17:56:41.466Z,8.90
2018-05-13T18:00:44.103Z,10.60
2018-05-13T18:04:46.767Z,14.87
2018-05-13T18:08:49.468Z,13.03
2018-05-13T18:17:01.145Z,17.67
2018-05-13T18:21:03.787Z,16.13
2018-05-13T18:25:07.196Z,17.40
2018-05-13T18:29:10.660Z,18.97
2018-05-13T18:33:13.270Z,18.13
2018-05-13T18:37:15.916Z,21.73
2018-05-13T18:41:18.624Z,18.23
2018-05-13T18:45:21.277Z,17.50
2018-05-13T18:49:23.927Z,18.33
2018-05-13T18:53:26.596Z,15.20
2018-05-13T18:57:29.236Z,16.47
2018-05-13T19:01:32.650Z,20.33
2018-05-13T19:05:35.413Z,14.33
2018-05-13T19:09:38.025Z,16.33
2018-05-13T19:13:40.668Z,17.73
2018-05-13T19:17:43.372Z,16.55
2018-05-13T19:21:46.012Z,14.33
2018-05-13T19:25:48.661Z,13.27
2018-05-13T19:29:52.032Z,14.10
2018-05-13T19:33:54.680Z,14.50
2018-05-13T19:37:57.384Z,14.87
2018-05-13T19:42:00.033Z,16.27
2018-05-13T19:46:03.444Z,16.63
2018-05-13T19:50:06.880Z,17.17
2018-05-13T19:54:09.536Z,17.67
2018-05-13T19:58:13.003Z,17.37
2018-05-13T20:02:15.640Z,17.37
2018-05-13T20:06:19.056Z,21.33
2018-05-13T20:10:21.676Z,20.77
2018-05-13T20:14:24.318Z,21.13
2018-05-13T20:18:27.730Z,21.20
2018-05-13T20:22:30.408Z,21.80
2018-05-13T20:26:33.772Z,29.43
2018-05-13T20:30:36.417Z,24.30
2018-05-13T20:34:39.826Z,23.20
2018-05-13T20:38:43.288Z,24.50
2018-05-13T20:42:45.928Z,23.73
2018-05-13T20:46:48.567Z,24.03
2018-05-13T20:50:51.212Z,26.47
2018-05-13T20:54:53.858Z,25.43
2018-05-13T20:58:56.494Z,27.63
2018-05-13T21:02:59.184Z,27.40
2018-05-13T21:07:01.797Z,27.70
2018-05-13T21:11:04.453Z,28.77
2018-05-13T21:15:07.092Z,26.77
2018-05-13T21:19:09.737Z,29.43
2018-05-13T21:23:12.389Z,28.13
2018-05-13T21:27:15.764Z,35.87
2018-05-13T21:31:18.408Z,28.83
2018-05-13T21:35:21.051Z,28.13
2018-05-13T21:39:23.695Z,31.53
2018-05-13T21:43:26.384Z,31.27
2018-05-13T21:47:28.987Z,32.87
2018-05-13T21:51:31.629Z,30.20
2018-05-13T21:55:35.032Z,31.67
2018-05-13T21:59:38.449Z,34.83
2018-05-13T22:03:41.861Z,34.57
2018-05-13T22:07:44.525Z,34.00
2018-05-13T22:11:47.234Z,36.33
2018-05-13T22:15:50.644Z,31.33
2018-05-13T22:19:53.288Z,34.77
2018-05-13T22:23:55.936Z,35.97
2018-05-13T22:27:58.551Z,35.70
2018-05-13T22:32:01.202Z,31.37
2018-05-13T22:36:03.843Z,32.57
2018-05-13T22:40:06.484Z,32.00
2018-05-13T22:44:09.132Z,36.07
2018-05-13T22:48:11.732Z,34.87
2018-05-13T22:52:15.140Z,33.60
2018-05-13T22:56:18.550Z,35.97
2018-05-13T23:00:21.960Z,34.90
2018-05-13T23:04:25.376Z,33.97
2018-05-13T23:08:27.987Z,32.33
2018-05-13T23:12:30.628Z,30.03
2018-05-13T23:16:34.093Z,31.90
2018-05-13T23:20:36.748Z,29.43
2018-05-13T23:24:40.162Z,29.43
2018-05-13T23:28:42.772Z,30.20
2018-05-13T23:32:45.417Z,30.50
2018-05-13T23:36:48.826Z,28.50
2018-05-13T23:40:52.242Z,28.70
2018-05-13T23:44:54.880Z,27.03
2018-05-13T23:48:57.495Z,27.87
2018-05-13T23:53:00.905Z,27.87
2018-05-13T23:57:04.312Z,28.93
